• Join FlightAware (Why Join?)
  • Login
  • US Flag 
11:55AM EDT


 

Airport Tracker/Info


-or-


 

Live Flight TrackerFlight Track Log ✈ SCX342 ✈ 02-Sep-2013 ✈ KMCO - KMSP

Flight Track Log - Related Links

Times and Time Zones

All times are in EDT time to prevent confusion due to time zone crossing. See the SCX342 flight status page for this flight to view local times or setup timezone preferences in your user account.

Time Position Orientation Groundspeed Altitude Reporting Facility
EDT Latitude Longitude Course Direction KTS MPH feet Rate Location/Type
01:04PM 28.4000 -81.3000 240° Southwest 164 189 700  Level Orlando TRACON
01:05PM 28.3667 -81.3667 240° Southwest 247 284 4,300 2,880 Climbing Orlando TRACON
01:06PM 28.3667 -81.4333 270° West 243 280 7,700 3,060 Climbing Orlando TRACON
01:07PM 28.4000 -81.5167 294° West 284 327 10,500 2,400 Climbing Orlando TRACON
01:09PM 28.4447 -81.6814 287° West 382 440 14,000 2,280 Climbing Jacksonville Center
01:10PM 28.4542 -81.7969 275° West 382 440 16,600 2,520 Climbing Jacksonville Center
01:11PM 28.4675 -81.9172 277° West 377 434 19,100 2,160 Climbing Jacksonville Center
01:12PM 28.4767 -82.0211 276° West 390 449 21,000 1,980 Climbing Jacksonville Center
01:13PM 28.4900 -82.1628 276° West 405 466 23,100 1,920 Climbing Jacksonville Center
01:14PM 28.5033 -82.2972 276° West 422 486 24,900 1,920 Climbing Jacksonville Center
01:15PM 28.5769 -82.4175 305° West 404 465 27,000 1,680 Climbing Jacksonville Center
01:16PM 28.6647 -82.4714 332° Northwest 404 465 28,300 1,560 Climbing Jacksonville Center
01:17PM 28.7986 -82.5539 332° Northwest 437 503 30,200 1,860 Climbing Jacksonville Center
01:18PM 28.9114 -82.6244 331° Northwest 445 512 32,100 2,100 Climbing Jacksonville Center
01:19PM 29.0181 -82.6931 331° Northwest 451 519 34,500 2,220 Climbing Jacksonville Center
01:20PM 29.1225 -82.7547 333° Northwest 443 510 36,600 1,440 Climbing Jacksonville Center
01:21PM 29.2247 -82.8189 331° Northwest 424 488 37,400 600 Climbing Jacksonville Center
01:22PM 29.3311 -82.8831 332° Northwest 424 488 37,800 300 Climbing Jacksonville Center
01:23PM 29.4378 -82.9497 331° Northwest 424 488 38,000  Climbing Jacksonville Center
01:24PM 29.5483 -83.0214 331° Northwest 438 504 37,900 -60 Descending Jacksonville Center
01:25PM 29.6547 -83.0861 332° Northwest 437 503 37,900  Level Jacksonville Center
01:26PM 29.7567 -83.1653 326° Northwest 447 514 37,900  Level Jacksonville Center
01:27PM 29.8569 -83.2469 325° Northwest 443 510 38,000  Climbing Jacksonville Center
01:28PM 29.9569 -83.3072 332° Northwest 443 510 37,900  Descending Jacksonville Center
01:29PM 30.0653 -83.3703 333° Northwest 438 504 38,000  Climbing Jacksonville Center
01:30PM 30.1714 -83.4331 333° Northwest 433 498 38,000 -60 Level Jacksonville Center
01:31PM 30.2797 -83.4986 332° Northwest 433 498 37,900 -60 Descending Jacksonville Center
01:32PM 30.3858 -83.5644 332° Northwest 427 491 37,900  Level Jacksonville Center
01:33PM 30.4942 -83.6303 332° Northwest 427 491 38,000  Climbing Jacksonville Center
01:34PM 30.6083 -83.7011 332° Northwest 427 491 38,000  Level Jacksonville Center
01:35PM 30.7167 -83.7697 331° Northwest 427 491 38,000  Level Jacksonville Center
01:36PM 30.8267 -83.8361 333° Northwest 434 499 38,000  Level Jacksonville Center
01:37PM 30.9347 -83.9025 332° Northwest 434 499 38,000  Level Jacksonville Center
01:38PM 31.0450 -83.9717 332° Northwest 434 499 38,000  Level Jacksonville Center
01:40PM 31.2603 -84.1044 332° Northwest 434 499 38,000  Level Atlanta Center
01:41PM 31.3667 -84.1725 331° Northwest 434 499 38,000  Level Atlanta Center
01:42PM 31.4856 -84.2458 332° Northwest 439 505 38,000  Level Atlanta Center
01:43PM 31.5939 -84.3119 333° Northwest 439 505 38,000  Level Atlanta Center
01:44PM 31.7022 -84.3806 332° Northwest 439 505 38,000  Level Atlanta Center
01:45PM 31.8106 -84.4494 332° Northwest 439 505 38,000  Level Atlanta Center
01:46PM 31.9169 -84.5161 332° Northwest 439 505 38,000  Level Atlanta Center
01:47PM 32.0250 -84.5850 332° Northwest 439 505 38,000  Level Atlanta Center
01:48PM 32.1333 -84.6544 332° Northwest 439 505 38,000  Level Atlanta Center
01:49PM 32.2436 -84.7239 332° Northwest 439 505 38,000  Level Atlanta Center
01:50PM 32.3539 -84.7961 331° Northwest 439 505 38,000  Level Atlanta Center
01:51PM 32.4514 -84.8511 335° Northwest 439 505 38,000  Level Atlanta Center
01:52PM 32.5658 -84.9236 332° Northwest 440 506 38,000  Level Atlanta Center
01:53PM 32.6781 -84.9964 331° Northwest 451 519 38,000  Level Atlanta Center
01:54PM 32.7861 -85.0667 331° Northwest 460 529 38,000  Level Atlanta Center
01:55PM 32.8958 -85.1472 328° Northwest 465 535 38,000  Level Atlanta Center
01:56PM 33.0061 -85.2056 336° Northwest 452 520 38,000  Level Atlanta Center
01:57PM 33.1219 -85.2914 328° Northwest 452 520 38,000  Level Atlanta Center
01:58PM 33.2319 -85.3625 332° Northwest 446 513 38,000  Level Atlanta Center
01:59PM 33.3336 -85.4286 331° Northwest 429 494 38,000  Level Atlanta Center
02:00PM 33.4453 -85.5053 330° Northwest 435 501 38,000  Level Atlanta Center
02:01PM 33.5531 -85.5719 333° Northwest 435 501 38,000  Level Atlanta Center
02:02PM 33.6608 -85.6386 333° Northwest 435 501 38,000  Level Atlanta Center
02:03PM 33.7667 -85.6831 341° North 440 506 38,000  Level Atlanta Center
02:04PM 33.8786 -85.7328 340° North 440 506 38,000  Level Atlanta Center
02:05PM 33.9969 -85.7828 341° North 434 499 38,000  Level Atlanta Center
02:06PM 34.1069 -85.8250 342° North 427 491 38,000  Level Atlanta Center
02:07PM 34.2189 -85.8725 341° North 422 486 38,000  Level Atlanta Center
02:08PM 34.3286 -85.9253 338° Northwest 422 486 38,000  Level Atlanta Center
02:10PM 34.5353 -86.0686 330° Northwest 422 486 38,000  Level Atlanta Center
02:11PM 34.6342 -86.1392 330° Northwest 422 486 38,000  Level Atlanta Center
02:12PM 34.7353 -86.2100 330° Northwest 417 480 38,000  Level Atlanta Center
02:13PM 34.8342 -86.2783 330° Northwest 417 480 38,000  Level Atlanta Center
02:14PM 34.9350 -86.3469 331° Northwest 412 474 38,000 360 Level Atlanta Center
02:15PM 35.0069 -86.4022 328° Northwest 414 476 38,600 780 Climbing Memphis Center
02:16PM 35.1031 -86.4764 328° Northwest 432 497 39,300 660 Climbing Memphis Center
02:17PM 35.2075 -86.5478 331° Northwest 426 490 40,000 300 Climbing Memphis Center
02:18PM 35.3078 -86.6194 330° Northwest 420 483 40,000  Level Memphis Center
02:19PM 35.4158 -86.6783 336° Northwest 420 483 40,000  Level Memphis Center
02:20PM 35.5297 -86.7242 342° North 425 489 40,000  Level Memphis Center
02:21PM 35.6417 -86.7731 340° North 425 489 40,000  Level Memphis Center
02:22PM 35.7558 -86.8217 341° North 430 495 40,000  Level Memphis Center
02:23PM 35.8569 -86.8636 341° North 430 495 40,000  Level Memphis Center
02:24PM 35.9708 -86.9100 342° North 430 495 40,000  Level Memphis Center
02:25PM 36.0847 -86.9564 342° North 430 495 40,000  Level Memphis Center
02:26PM 36.1986 -87.0058 341° North 430 495 40,000  Level Memphis Center
02:27PM 36.3272 -87.0597 341° North 435 501 40,000  Level Memphis Center
02:28PM 36.4431 -87.0989 345° North 435 501 40,000  Level Memphis Center
02:29PM 36.5567 -87.1433 343° North 429 494 40,000  Level Memphis Center
02:30PM 36.6706 -87.1881 343° North 429 494 40,000  Level Memphis Center
02:31PM 36.7842 -87.2328 343° North 429 494 40,000  Level Memphis Center
02:32PM 36.8958 -87.2803 341° North 429 494 40,000  Level Memphis Center
02:33PM 36.9969 -87.3231 341° North 429 494 40,000  Level Memphis Center
02:34PM 37.1653 -87.3911 342° North 428 493 40,000  Level Indianapolis Center
02:35PM 37.2850 -87.4769 330° Northwest 422 486 40,000  Level Indianapolis Center
02:36PM 37.3828 -87.5581 327° Northwest 419 482 40,000  Level Indianapolis Center
02:37PM 37.4789 -87.6411 326° Northwest 416 479 40,000  Level Indianapolis Center
02:38PM 37.5753 -87.7286 324° Northwest 422 486 40,000  Level Indianapolis Center
02:39PM 37.6733 -87.8114 326° Northwest 420 483 40,000  Level Indianapolis Center
02:40PM 37.7739 -87.8986 326° Northwest 421 484 40,000  Level Indianapolis Center
02:41PM 37.8717 -87.9839 325° Northwest 423 487 40,000  Level Indianapolis Center
02:42PM 37.9697 -88.0683 326° Northwest 423 487 40,000  Level Indianapolis Center
02:43PM 38.0681 -88.1536 326° Northwest 424 488 40,000  Level Indianapolis Center
02:45PM 38.1644 -88.2381 325° Northwest 420 483 40,000  Level Indianapolis Center
02:46PM 38.2828 -88.3406 326° Northwest 421 484 40,000  Level Kansas City Center
02:47PM 38.3789 -88.4256 325° Northwest 420 483 40,000  Level Kansas City Center
02:48PM 38.4750 -88.5103 325° Northwest 418 481 40,000  Level Kansas City Center
02:49PM 38.5711 -88.5953 325° Northwest 418 481 40,000  Level Kansas City Center
02:50PM 38.6747 -88.6867 325° Northwest 415 478 40,000  Level Kansas City Center
02:51PM 38.7681 -88.7706 325° Northwest 413 475 40,000  Level Kansas City Center
02:52PM 38.8622 -88.8539 325° Northwest 413 475 40,000  Level Kansas City Center
02:53PM 38.9722 -88.9519 325° Northwest 406 467 40,000  Level Kansas City Center
02:54PM 39.0675 -89.0383 325° Northwest 404 465 40,000  Level Kansas City Center
02:55PM 39.1547 -89.1175 325° Northwest 402 463 40,000  Level Kansas City Center
02:56PM 39.2464 -89.1997 325° Northwest 403 464 40,000  Level Kansas City Center
02:57PM 39.3372 -89.2822 325° Northwest 402 463 40,000  Level Kansas City Center
02:58PM 39.4267 -89.3644 325° Northwest 398 458 40,000  Level Kansas City Center
02:59PM 39.5353 -89.4639 325° Northwest 400 460 40,000  Level Kansas City Center
03:00PM 39.6272 -89.5481 325° Northwest 404 465 40,000  Level Kansas City Center
03:01PM 39.7228 -89.6353 325° Northwest 401 461 40,000  Level Kansas City Center
03:02PM 39.8136 -89.7197 324° Northwest 400 460 40,000  Level Kansas City Center
03:03PM 39.9042 -89.8050 324° Northwest 401 461 40,000  Level Kansas City Center
03:04PM 39.9942 -89.8894 324° Northwest 398 458 40,000  Level Kansas City Center
03:05PM 40.0839 -89.9725 325° Northwest 396 456 40,000  Level Kansas City Center
03:06PM 40.1739 -90.0569 324° Northwest 396 456 40,000  Level Kansas City Center
03:07PM 40.2822 -90.1594 324° Northwest 397 457 40,000  Level Kansas City Center
03:08PM 40.3336 -90.2089 324° Northwest 394 453 40,000  Level Chicago Center
03:09PM 40.4239 -90.2950 324° Northwest 397 457 40,000  Level Chicago Center
03:10PM 40.5125 -90.3789 324° Northwest 393 452 40,000  Level Chicago Center
03:11PM 40.6014 -90.4628 324° Northwest 390 449 40,000  Level Chicago Center
03:12PM 40.6889 -90.5464 324° Northwest 387 445 40,000  Level Chicago Center
03:13PM 40.7769 -90.6300 324° Northwest 388 447 40,000  Level Chicago Center
03:14PM 40.8639 -90.7144 324° Northwest 387 445 40,000  Level Chicago Center
03:15PM 40.9692 -90.8156 324° Northwest 388 447 40,000  Level Chicago Center
03:16PM 41.0567 -90.9003 324° Northwest 388 447 40,000  Level Chicago Center
03:17PM 41.1436 -90.9856 324° Northwest 389 448 40,000  Level Chicago Center
03:18PM 41.2294 -91.0692 324° Northwest 384 442 40,000  Level Chicago Center
03:19PM 41.3156 -91.1542 323° Northwest 384 442 40,000 -60 Level Chicago Center
03:20PM 41.4011 -91.2372 324° Northwest 381 438 39,900 -360 Descending Chicago Center
03:21PM 41.5008 -91.3361 323° Northwest 385 443 39,300 -540 Descending Chicago Center
03:22PM 41.5861 -91.4208 323° Northwest 385 443 38,900 -480 Descending Chicago Center
03:24PM 41.6714 -91.5047 324° Northwest 383 441 38,400 -540 Descending Chicago Center
03:25PM 41.7553 -91.5864 324° Northwest 376 433 37,900 -540 Descending Chicago Center
03:26PM 41.8544 -91.6861 323° Northwest 373 429 37,300 -540 Descending Chicago Center
03:27PM 41.9367 -91.7681 323° Northwest 371 427 36,900 -480 Descending Chicago Center
03:28PM 42.0197 -91.8536 323° Northwest 375 432 36,400 -1,260 Descending Chicago Center
03:29PM 42.1025 -91.9361 324° Northwest 372 428 34,400 -1,440 Descending Chicago Center
03:30PM 42.1839 -92.0192 323° Northwest 368 423 33,500 -900 Descending Chicago Center
03:31PM 42.2694 -92.1050 323° Northwest 381 438 32,600 -1,680 Descending Chicago Center
03:32PM 42.3744 -92.2114 323° Northwest 394 453 30,000 -1,260 Descending Chicago Center
03:33PM 42.4642 -92.3044 323° Northwest 405 466 30,000  Level Chicago Center
03:34PM 42.5522 -92.3958 323° Northwest 401 461 30,000  Level Chicago Center
03:35PM 42.6439 -92.4797 326° Northwest 398 458 30,000  Level Chicago Center
03:36PM 42.7375 -92.5661 326° Northwest 404 465 30,000  Level Chicago Center
03:37PM 42.8314 -92.6519 326° Northwest 401 461 30,000  Level Minneapolis Center
03:38PM 42.9203 -92.7375 325° Northwest 400 460 30,000  Level Minneapolis Center
03:39PM 43.0133 -92.8242 326° Northwest 405 466 30,000  Level Minneapolis Center
03:40PM 43.1061 -92.9100 326° Northwest 405 466 30,000  Level Minneapolis Center
03:41PM 43.1992 -92.9961 326° Northwest 407 468 30,000 -1,200 Level Minneapolis Center
03:42PM 43.3094 -93.1017 325° Northwest 406 467 27,600 -3,000 Descending Minneapolis Center
03:43PM 43.4247 -93.1356 348° North 426 490 23,800 -2,400 Descending Minneapolis Center
03:44PM 43.5344 -93.1453 356° North 407 468 22,600 -1,200 Descending Minneapolis Center
03:45PM 43.6336 -93.1569 355° North 352 405 21,400 -1,260 Descending Minneapolis Center
03:46PM 43.7228 -93.1650 356° North 327 376 20,000 -1,500 Descending Minneapolis Center
03:47PM 43.8083 -93.1758 355° North 313 360 18,300 -1,620 Descending Minneapolis Center
03:48PM 43.8931 -93.1844 356° North 307 353 16,700 -1,800 Descending Minneapolis Center
03:49PM 43.9900 -93.1956 355° North 294 338 14,700 -1,800 Descending Minneapolis Center
03:50PM 44.0700 -93.2047 355° North 292 336 13,100 -1,560 Descending Minneapolis Center
03:51PM 44.1472 -93.2114 356° North 281 323 11,500 -1,260 Descending Minneapolis Center
03:52PM 44.2250 -93.2083 North 280 322 10,500 -780 Descending Minneapolis Center
03:53PM 44.3008 -93.2069 North 274 315 9,900 -840 Descending Minneapolis Center
03:54PM 44.3858 -93.2042 North 254 292 8,800 -1,140 Descending Minneapolis Center
03:55PM 44.4550 -93.2025 North 249 287 7,600 -1,260 Descending Minneapolis Center
03:56PM 44.5231 -93.2000 North 245 282 6,300 -960 Descending Minneapolis Center
03:57PM 44.5883 -93.1986 North 237 273 5,700 -780 Descending Minneapolis Center
03:59PM 44.6525 -93.1969 North 233 268 4,700 -900 Descending Minneapolis Center
04:00PM 44.7022 -93.1953 North 228 262 3,900 -1,020 Descending Minneapolis Center
04:01PM 44.7756 -93.2133 350° North 197 227 2,600 -1,080 Descending Minneapolis Center
04:02PM 44.8211 -93.2250 350° North 175 201 1,700 -900 Descending Minneapolis Center
04:04PM 44.8667 -93.2167 North  Level FlightAware Approximate
04:11PM 44.8820 -93.2218 North  Level Estimated